createdAt,value
2022-08-08T00:01:08.062Z,100946.88
2022-08-08T00:03:49.318Z,100948.72
2022-08-08T00:06:36.512Z,100945.94
2022-08-08T00:09:15.924Z,100955.53
2022-08-08T00:12:07.142Z,100952.84
2022-08-08T00:14:48.195Z,100946.75
2022-08-08T00:17:58.694Z,100946.72
2022-08-08T00:20:37.254Z,100945.09
2022-08-08T00:23:09.146Z,100954.78
2022-08-08T00:25:46.567Z,100954.03
2022-08-08T00:28:35.417Z,100954.94
2022-08-08T00:32:20.908Z,100954.94
2022-08-08T00:34:30.170Z,100949.50
2022-08-08T00:37:08.123Z,100960.75
2022-08-08T00:41:12.597Z,100965.13
2022-08-08T00:43:19.573Z,100954.50
2022-08-08T00:46:02.967Z,100957.03
2022-08-08T00:49:01.036Z,100956.16
2022-08-08T00:51:57.338Z,100958.06
2022-08-08T00:54:52.057Z,100960.06
2022-08-08T00:57:58.166Z,100963.50
2022-08-08T01:00:34.502Z,100967.97
2022-08-08T01:04:02.597Z,100973.47
2022-08-08T01:07:05.886Z,100968.63
2022-08-08T01:10:15.571Z,100967.13
2022-08-08T01:13:17.797Z,100963.75
2022-08-08T01:16:46.143Z,100968.31
2022-08-08T01:20:03.221Z,100964.59
2022-08-08T01:23:06.689Z,100969.03
2022-08-08T01:26:24.076Z,100960.69
2022-08-08T01:29:16.702Z,100973.16
2022-08-08T01:32:24.303Z,100958.56
2022-08-08T01:35:17.899Z,100962.09
2022-08-08T01:38:15.248Z,100959.34
2022-08-08T01:41:01.247Z,100969.16
2022-08-08T01:43:40.808Z,100968.31
2022-08-08T01:46:40.416Z,100963.00
2022-08-08T01:49:23.048Z,100968.53
2022-08-08T01:52:52.806Z,100972.22
2022-08-08T01:55:25.516Z,100973.03
2022-08-08T01:58:38.919Z,100973.00
2022-08-08T02:01:28.192Z,100964.31
2022-08-08T02:04:28.266Z,100971.22
2022-08-08T02:07:04.427Z,100970.25
2022-08-08T02:10:03.944Z,100985.91
2022-08-08T02:12:52.352Z,100983.97
2022-08-08T02:15:34.842Z,100982.97
2022-08-08T02:18:14.328Z,100977.69
2022-08-08T02:21:08.549Z,100982.28
2022-08-08T02:23:47.427Z,100984.34
2022-08-08T02:26:25.848Z,100975.81
2022-08-08T02:29:07.460Z,100977.81
2022-08-08T02:32:06.623Z,100973.75
2022-08-08T02:35:08.907Z,100982.66
2022-08-08T02:38:25.674Z,100984.22
2022-08-08T02:41:58.831Z,100984.91
2022-08-08T02:44:56.270Z,100992.03
2022-08-08T02:48:03.616Z,100983.47
2022-08-08T02:51:11.942Z,100987.28
2022-08-08T02:54:01.567Z,100982.25
2022-08-08T02:57:00.476Z,100987.63
2022-08-08T03:00:15.924Z,100990.34
2022-08-08T03:05:01.115Z,100985.91
2022-08-08T03:06:45.637Z,100987.03
2022-08-08T03:09:54.044Z,100994.34
2022-08-08T03:13:02.247Z,100993.63
2022-08-08T03:16:12.648Z,100992.78
2022-08-08T03:18:59.816Z,100998.06
2022-08-08T03:21:54.948Z,100999.06
2022-08-08T03:24:20.357Z,100986.03
2022-08-08T03:26:53.267Z,100988.81
2022-08-08T03:29:51.387Z,100993.34
2022-08-08T03:32:33.930Z,100988.94
2022-08-08T03:35:06.194Z,100990.66
2022-08-08T03:37:59.871Z,100985.47
2022-08-08T03:40:31.956Z,100988.94
2022-08-08T03:43:16.815Z,100986.97
2022-08-08T03:46:05.233Z,100993.81
2022-08-08T03:49:30.995Z,100991.81
2022-08-08T03:51:50.990Z,100989.00
2022-08-08T03:54:41.663Z,101003.94
2022-08-08T03:58:31.722Z,101002.28
2022-08-08T04:00:11.934Z,101006.66
2022-08-08T04:02:59.595Z,101005.97
2022-08-08T04:05:31.386Z,101006.13
2022-08-08T04:08:08.330Z,101002.00
2022-08-08T04:10:37.532Z,101000.31
2022-08-08T04:13:18.235Z,101003.72
2022-08-08T04:16:04.204Z,101000.09
2022-08-08T04:18:42.201Z,101007.06
2022-08-08T04:21:14.548Z,101001.84
2022-08-08T04:24:12.024Z,101012.25
2022-08-08T04:26:57.554Z,101005.16
2022-08-08T04:29:37.151Z,101008.63
2022-08-08T04:32:08.271Z,101009.50
2022-08-08T04:34:43.016Z,101010.38
2022-08-08T04:37:31.448Z,101005.91
2022-08-08T04:40:07.791Z,101008.56
2022-08-08T04:42:46.661Z,101012.06
2022-08-08T04:45:28.166Z,101011.13
2022-08-08T04:48:00.350Z,101011.88
2022-08-08T04:50:37.634Z,101017.91
2022-08-08T04:53:14.104Z,101012.53
2022-08-08T04:55:59.884Z,101016.75
2022-08-08T04:58:33.146Z,101016.69
2022-08-08T05:01:05.891Z,101018.34
2022-08-08T05:04:11.403Z,101028.88
2022-08-08T05:06:36.311Z,101028.84
2022-08-08T05:09:08.680Z,101023.50
2022-08-08T05:11:40.926Z,101026.91
2022-08-08T05:14:14.968Z,101035.56
2022-08-08T05:16:54.100Z,101039.03
2022-08-08T05:20:11.495Z,101036.25
2022-08-08T05:22:28.225Z,101031.81
2022-08-08T05:24:59.828Z,101045.84
2022-08-08T05:27:33.117Z,101051.09
2022-08-08T05:30:03.278Z,101045.78
2022-08-08T05:32:42.318Z,101052.69
2022-08-08T05:35:15.345Z,101050.78
2022-08-08T05:37:53.989Z,101056.78
2022-08-08T05:40:31.328Z,101057.47
2022-08-08T05:43:17.204Z,101058.25
2022-08-08T05:46:03.208Z,101064.25
2022-08-08T05:48:38.398Z,101063.28
2022-08-08T05:51:15.285Z,101064.88
2022-08-08T05:54:24.430Z,101062.03
2022-08-08T05:56:48.231Z,101061.03
2022-08-08T05:59:59.656Z,101064.44
2022-08-08T06:02:36.538Z,101066.00
2022-08-08T06:05:33.674Z,101078.94
2022-08-08T06:08:03.074Z,101075.34
2022-08-08T06:10:41.549Z,101071.66
2022-08-08T06:13:12.499Z,101068.84
2022-08-08T06:15:51.444Z,101073.06
2022-08-08T06:18:41.350Z,101067.53
2022-08-08T06:21:28.107Z,101084.06
2022-08-08T06:24:05.183Z,101082.97
2022-08-08T06:26:52.675Z,101080.91
2022-08-08T06:29:59.170Z,101083.34
2022-08-08T06:32:21.198Z,101084.75
2022-08-08T06:35:12.172Z,101079.16
2022-08-08T06:37:56.064Z,101091.91
2022-08-08T06:40:32.107Z,101087.16
2022-08-08T06:43:06.247Z,101087.56
2022-08-08T06:45:48.197Z,101078.44
2022-08-08T06:48:18.957Z,101096.56
2022-08-08T06:50:52.107Z,101089.06
2022-08-08T06:53:39.510Z,101096.69
2022-08-08T06:56:16.626Z,101096.41
2022-08-08T06:58:45.768Z,101097.00
2022-08-08T07:02:18.102Z,101085.50
2022-08-08T07:04:40.027Z,101102.03
2022-08-08T07:07:10.320Z,101094.75
2022-08-08T07:09:59.400Z,101098.13
2022-08-08T07:12:41.407Z,101094.97
2022-08-08T07:15:32.656Z,101096.50
2022-08-08T07:18:35.593Z,101101.59
2022-08-08T07:21:01.857Z,101096.66
2022-08-08T07:24:01.313Z,101095.31
2022-08-08T07:26:28.916Z,101099.66
2022-08-08T07:29:05.617Z,101101.50
2022-08-08T07:31:37.548Z,101105.38
2022-08-08T07:34:08.787Z,101100.97
2022-08-08T07:36:48.251Z,101100.97
2022-08-08T07:39:29.498Z,101105.38
2022-08-08T07:42:18.901Z,101120.69
2022-08-08T07:44:49.018Z,101106.94
2022-08-08T07:47:38.116Z,101110.97
2022-08-08T07:50:10.750Z,101114.00
2022-08-08T07:52:44.517Z,101117.09
2022-08-08T07:55:24.078Z,101123.41
2022-08-08T07:58:08.381Z,101127.75
2022-08-08T08:00:47.587Z,101122.31
2022-08-08T08:03:28.230Z,101125.84
2022-08-08T08:06:00.142Z,101123.59
2022-08-08T08:08:50.280Z,101123.47
2022-08-08T08:11:38.256Z,101120.28
2022-08-08T08:14:19.543Z,101126.91
2022-08-08T08:16:50.833Z,101123.84
2022-08-08T08:19:27.549Z,101126.47
2022-08-08T08:22:14.971Z,101130.38
2022-08-08T08:24:47.562Z,101133.41
2022-08-08T08:27:21.884Z,101137.53
2022-08-08T08:29:55.916Z,101134.44
2022-08-08T08:32:36.541Z,101120.22
2022-08-08T08:35:15.281Z,101130.44
2022-08-08T08:38:05.831Z,101119.56
2022-08-08T08:40:34.903Z,101120.47
2022-08-08T08:43:11.851Z,101115.72
2022-08-08T08:45:49.731Z,101115.34
2022-08-08T08:48:26.509Z,101118.44
2022-08-08T08:50:56.680Z,101111.09
2022-08-08T08:53:58.909Z,101110.78
2022-08-08T08:56:23.914Z,101109.00
2022-08-08T08:58:58.967Z,101109.47
2022-08-08T09:01:36.351Z,101116.75
2022-08-08T09:04:30.970Z,101112.19
2022-08-08T09:07:00.384Z,101109.50
2022-08-08T09:09:40.117Z,101107.38
2022-08-08T09:12:24.167Z,101106.59
2022-08-08T09:14:56.078Z,101096.81
2022-08-08T09:17:41.067Z,101099.81
2022-08-08T09:21:56.519Z,101102.44
2022-08-08T09:23:11.285Z,101109.50
2022-08-08T09:25:57.786Z,101099.47
2022-08-08T09:28:40.219Z,101088.06
2022-08-08T09:31:17.708Z,101094.88
2022-08-08T09:34:15.382Z,101101.00
2022-08-08T09:36:51.648Z,101096.59
2022-08-08T09:39:43.824Z,101097.72
2022-08-08T09:42:22.193Z,101094.03
2022-08-08T09:45:03.963Z,101087.03
2022-08-08T09:48:04.818Z,101082.97
2022-08-08T09:50:28.036Z,101082.34
2022-08-08T09:53:02.223Z,101081.59
2022-08-08T09:56:03.626Z,101086.00
2022-08-08T09:58:40.656Z,101077.28
2022-08-08T10:01:58.416Z,101076.94
2022-08-08T10:04:42.456Z,101073.50
2022-08-08T10:07:25.817Z,101072.88
2022-08-08T10:10:00.791Z,101070.84
2022-08-08T10:12:37.657Z,101073.09
2022-08-08T10:15:17.166Z,101071.41
2022-08-08T10:18:06.431Z,101068.72
2022-08-08T10:20:51.497Z,101078.34
2022-08-08T10:23:44.001Z,101079.63
2022-08-08T10:26:30.885Z,101077.72
2022-08-08T10:29:11.985Z,101075.34
2022-08-08T10:32:06.720Z,101073.66
2022-08-08T10:34:43.596Z,101076.56
2022-08-08T10:37:16.231Z,101067.13
2022-08-08T10:39:53.692Z,101062.50
2022-08-08T10:42:27.067Z,101059.56
2022-08-08T10:45:02.686Z,101056.63
2022-08-08T10:47:43.890Z,101049.03
2022-08-08T10:50:16.685Z,101052.91
2022-08-08T10:52:44.885Z,101049.31
2022-08-08T10:55:41.299Z,101053.25
2022-08-08T10:58:08.570Z,101045.75
2022-08-08T11:00:52.731Z,101047.69
2022-08-08T11:04:01.569Z,101044.53
2022-08-08T11:06:34.145Z,101046.19
2022-08-08T11:09:15.041Z,101042.31
2022-08-08T11:12:06.500Z,101028.06
2022-08-08T11:15:01.418Z,101032.94
2022-08-08T11:18:00.363Z,101031.16
2022-08-08T11:20:27.328Z,101039.59
2022-08-08T11:22:58.009Z,101041.31
2022-08-08T11:25:51.940Z,101034.03
2022-08-08T11:28:31.913Z,101036.09
2022-08-08T11:31:03.861Z,101035.06
2022-08-08T11:33:51.027Z,101040.47
2022-08-08T11:36:23.362Z,101028.28
2022-08-08T11:38:58.288Z,101036.38
2022-08-08T11:41:32.416Z,101028.56
2022-08-08T11:44:05.288Z,101025.00
2022-08-08T11:46:35.180Z,101025.31
2022-08-08T11:49:09.498Z,101024.63
2022-08-08T11:51:49.907Z,101019.06
2022-08-08T11:54:33.864Z,101021.06
2022-08-08T11:57:27.821Z,101023.22
2022-08-08T12:00:02.779Z,101018.22
2022-08-08T12:02:54.929Z,101013.41
2022-08-08T12:05:33.917Z,101009.97
2022-08-08T12:08:02.304Z,101010.69
2022-08-08T12:10:33.647Z,101006.56
2022-08-08T12:13:04.286Z,100997.97
2022-08-08T12:15:41.857Z,100993.94
2022-08-08T12:18:20.619Z,100989.06
2022-08-08T12:20:53.292Z,100991.19
2022-08-08T12:23:40.206Z,100998.72
2022-08-08T12:26:27.191Z,100993.88
2022-08-08T12:28:57.686Z,100988.91
2022-08-08T12:31:38.679Z,100992.19
2022-08-08T12:34:20.536Z,100980.81
2022-08-08T12:37:08.365Z,100993.75
2022-08-08T12:40:01.366Z,100978.72
2022-08-08T12:42:32.812Z,100979.88
2022-08-08T12:45:54.004Z,100977.97
2022-08-08T12:48:10.002Z,100972.31
2022-08-08T12:50:54.833Z,100971.13
2022-08-08T12:53:36.182Z,100978.66
2022-08-08T12:56:19.636Z,100973.69
2022-08-08T12:58:55.255Z,100973.44
2022-08-08T13:04:32.748Z,100966.78
2022-08-08T13:07:04.079Z,100978.22
2022-08-08T13:09:43.082Z,100973.25
2022-08-08T13:12:29.909Z,100968.63
2022-08-08T13:15:02.338Z,100965.91
2022-08-08T13:18:09.181Z,100959.47
2022-08-08T13:20:27.278Z,100970.97
2022-08-08T13:25:50.435Z,100960.53
2022-08-08T13:28:32.335Z,100959.94
2022-08-08T13:31:04.145Z,100949.38
2022-08-08T13:33:42.774Z,100955.69
2022-08-08T13:36:13.624Z,100959.63
2022-08-08T13:38:42.501Z,100947.56
2022-08-08T13:41:16.605Z,100951.94
2022-08-08T13:43:49.641Z,100952.03
2022-08-08T13:46:26.727Z,100946.63
2022-08-08T13:49:12.139Z,100941.84
2022-08-08T13:52:07.601Z,100947.97
2022-08-08T13:54:44.125Z,100946.00
2022-08-08T13:57:14.716Z,100946.78
2022-08-08T13:59:48.371Z,100948.03
2022-08-08T14:02:20.749Z,100941.50
2022-08-08T14:04:57.510Z,100940.31
2022-08-08T14:07:37.986Z,100934.13
2022-08-08T14:10:11.654Z,100943.56
2022-08-08T14:12:43.859Z,100943.16
2022-08-08T14:15:31.547Z,100936.22
2022-08-08T14:18:35.510Z,100930.22
2022-08-08T14:21:03.459Z,100931.97
2022-08-08T14:24:07.297Z,100930.50
2022-08-08T14:26:33.132Z,100937.63
2022-08-08T14:29:06.136Z,100922.84
2022-08-08T14:32:09.037Z,100933.69
2022-08-08T14:34:37.780Z,100933.66
2022-08-08T14:37:08.273Z,100932.72
2022-08-08T14:39:48.602Z,100922.84
2022-08-08T14:42:17.613Z,100925.47
2022-08-08T14:45:00.131Z,100926.72
2022-08-08T14:47:30.321Z,100922.50
2022-08-08T14:50:21.409Z,100912.38
2022-08-08T14:53:03.509Z,100916.56
2022-08-08T14:55:41.454Z,100912.97
2022-08-08T14:58:16.002Z,100910.81
2022-08-08T15:00:46.546Z,100910.09
2022-08-08T15:03:17.307Z,100911.44
2022-08-08T15:05:53.754Z,100909.91
2022-08-08T15:08:34.521Z,100906.38
2022-08-08T15:11:11.298Z,100913.09
2022-08-08T15:14:01.980Z,100908.72
2022-08-08T15:16:34.672Z,100908.31
2022-08-08T15:19:04.355Z,100909.44
2022-08-08T15:21:32.737Z,100912.75
2022-08-08T15:24:01.296Z,100907.81
2022-08-08T15:26:33.005Z,100919.19
2022-08-08T15:29:01.481Z,100911.78
2022-08-08T15:32:02.680Z,100913.47
2022-08-08T15:34:29.529Z,100908.31
2022-08-08T15:37:02.956Z,100905.09
2022-08-08T15:39:37.502Z,100897.25
2022-08-08T15:42:13.434Z,100904.81
2022-08-08T15:44:52.686Z,100902.16
2022-08-08T15:47:22.506Z,100905.81
2022-08-08T15:49:51.318Z,100902.69
2022-08-08T15:52:22.046Z,100904.28
2022-08-08T15:54:51.845Z,100906.69
2022-08-08T15:57:23.053Z,100909.41
2022-08-08T16:00:06.511Z,100898.00
2022-08-08T16:02:43.888Z,100904.41
2022-08-08T16:05:14.054Z,100906.38
2022-08-08T16:07:52.876Z,100908.41
2022-08-08T16:13:05.927Z,100904.69
2022-08-08T16:13:41.940Z,100900.38
2022-08-08T16:16:09.652Z,100898.69
2022-08-08T16:18:57.199Z,100900.09
2022-08-08T16:21:30.571Z,100897.81
2022-08-08T16:24:00.496Z,100889.03
2022-08-08T16:26:33.832Z,100896.72
2022-08-08T16:29:08.665Z,100898.97
2022-08-08T16:31:40.857Z,100906.03
2022-08-08T16:34:10.621Z,100908.00
2022-08-08T16:36:40.825Z,100899.91
2022-08-08T16:39:16.956Z,100908.47
2022-08-08T16:42:00.881Z,100905.50
2022-08-08T16:44:33.654Z,100902.94
2022-08-08T16:47:21.669Z,100901.78
2022-08-08T16:50:01.366Z,100905.19
2022-08-08T16:54:59.754Z,100891.25
2022-08-08T16:55:52.692Z,100905.88
2022-08-08T16:58:13.904Z,100898.34
2022-08-08T17:00:48.631Z,100909.34
2022-08-08T17:03:25.273Z,100899.94
2022-08-08T17:06:36.062Z,100902.78
2022-08-08T17:08:57.202Z,100905.28
2022-08-08T17:11:28.052Z,100897.47
2022-08-08T17:14:01.660Z,100896.47
2022-08-08T17:16:31.624Z,100898.41
2022-08-08T17:19:00.704Z,100899.69
2022-08-08T17:21:41.206Z,100884.41
2022-08-08T17:24:10.118Z,100893.19
2022-08-08T17:26:50.510Z,100892.91
2022-08-08T17:29:24.848Z,100889.28
2022-08-08T17:31:54.951Z,100899.25
2022-08-08T17:34:37.328Z,100884.50
2022-08-08T17:37:14.088Z,100893.22
2022-08-08T17:40:03.091Z,100901.84
2022-08-08T17:42:30.368Z,100893.09
2022-08-08T17:44:58.650Z,100892.31
2022-08-08T17:47:40.047Z,100899.75
2022-08-08T17:50:10.116Z,100895.75
2022-08-08T17:52:43.125Z,100902.84
2022-08-08T17:56:06.836Z,100897.38
2022-08-08T17:58:02.060Z,100900.50
2022-08-08T18:00:31.918Z,100908.50
2022-08-08T18:03:09.363Z,100906.94
2022-08-08T18:05:48.123Z,100912.47
2022-08-08T18:08:37.598Z,100915.44
2022-08-08T18:11:14.989Z,100913.63
2022-08-08T18:13:45.226Z,100909.38
2022-08-08T18:16:20.473Z,100907.16
2022-08-08T18:18:56.405Z,100910.56
2022-08-08T18:21:58.864Z,100908.38
2022-08-08T18:24:19.555Z,100909.97
2022-08-08T18:26:54.386Z,100909.22
2022-08-08T18:29:30.286Z,100918.00
2022-08-08T18:32:04.942Z,100916.41
2022-08-08T18:34:36.311Z,100923.81
2022-08-08T18:37:08.017Z,100926.72
2022-08-08T18:39:38.300Z,100932.25
2022-08-08T18:42:15.952Z,100929.75
2022-08-08T18:44:55.150Z,100935.19
2022-08-08T18:47:25.018Z,100930.59
2022-08-08T18:49:58.689Z,100923.25
2022-08-08T18:52:29.955Z,100922.44
2022-08-08T18:55:09.669Z,100926.94
2022-08-08T18:57:44.666Z,100934.38
2022-08-08T19:00:19.649Z,100935.72
2022-08-08T19:02:55.893Z,100937.13
2022-08-08T19:05:32.117Z,100941.38
2022-08-08T19:08:24.096Z,100946.34
2022-08-08T19:10:56.495Z,100944.22
2022-08-08T19:13:38.175Z,100951.53
2022-08-08T19:16:09.127Z,100950.97
2022-08-08T19:18:51.519Z,100956.78
2022-08-08T19:21:30.067Z,100974.34
2022-08-08T19:24:01.086Z,100960.34
2022-08-08T19:26:35.306Z,100965.09
2022-08-08T19:29:04.034Z,100968.09
2022-08-08T19:31:35.245Z,100978.88
2022-08-08T19:34:30.231Z,100972.00
2022-08-08T19:36:58.965Z,100983.00
2022-08-08T19:39:34.871Z,100983.06
2022-08-08T19:42:05.076Z,100985.56
2022-08-08T19:44:45.419Z,100990.13
2022-08-08T19:47:16.591Z,100990.88
2022-08-08T19:49:59.632Z,101000.78
2022-08-08T19:52:35.558Z,100998.41
2022-08-08T19:55:09.435Z,100999.56
2022-08-08T19:57:41.172Z,101009.44
2022-08-08T20:00:29.257Z,101006.91
2022-08-08T20:03:00.909Z,101015.31
2022-08-08T20:06:13.432Z,101014.84
2022-08-08T20:08:38.764Z,101024.19
2022-08-08T20:11:08.187Z,101017.81
2022-08-08T20:14:31.491Z,101023.94
2022-08-08T20:16:29.502Z,101012.25
2022-08-08T20:18:58.037Z,101019.88
2022-08-08T20:21:26.666Z,101016.94
2022-08-08T20:24:01.677Z,101026.84
2022-08-08T20:26:33.959Z,101022.69
2022-08-08T20:29:03.969Z,101022.09
2022-08-08T20:32:06.802Z,101028.25
2022-08-08T20:34:30.678Z,101033.84
2022-08-08T20:37:00.799Z,101037.44
2022-08-08T20:39:33.988Z,101046.25
2022-08-08T20:42:09.990Z,101051.19
2022-08-08T20:44:38.655Z,101051.63
2022-08-08T20:47:15.802Z,101043.66
2022-08-08T20:49:54.421Z,101051.50
2022-08-08T20:52:27.571Z,101053.88
2022-08-08T20:54:57.731Z,101061.25
2022-08-08T20:57:27.139Z,101068.50
2022-08-08T20:59:56.437Z,101060.00
2022-08-08T21:02:26.046Z,101065.41
2022-08-08T21:05:00.575Z,101069.25
2022-08-08T21:08:33.242Z,101076.69
2022-08-08T21:10:21.331Z,101089.88
2022-08-08T21:12:56.378Z,101090.25
2022-08-08T21:16:05.265Z,101079.13
2022-08-08T21:18:15.017Z,101089.72
2022-08-08T21:20:49.162Z,101085.41
2022-08-08T21:23:19.561Z,101086.41
2022-08-08T21:26:09.908Z,101090.09
2022-08-08T21:28:38.963Z,101083.75
2022-08-08T21:31:22.581Z,101090.53
2022-08-08T21:33:52.257Z,101081.69
2022-08-08T21:36:28.270Z,101077.66
2022-08-08T21:38:57.544Z,101089.56
2022-08-08T21:41:38.231Z,101091.09
2022-08-08T21:44:11.874Z,101090.84
2022-08-08T21:48:07.245Z,101094.19
2022-08-08T21:49:30.656Z,101098.22
2022-08-08T21:54:23.062Z,101094.63
2022-08-08T21:54:54.782Z,101103.28
2022-08-08T21:57:42.587Z,101104.66
2022-08-08T22:00:14.332Z,101097.53
2022-08-08T22:02:44.139Z,101100.56
2022-08-08T22:05:14.991Z,101100.63
2022-08-08T22:07:44.266Z,101098.00
2022-08-08T22:10:32.719Z,101105.19
2022-08-08T22:13:18.611Z,101108.38
2022-08-08T22:15:58.807Z,101106.41
2022-08-08T22:18:30.957Z,101106.94
2022-08-08T22:21:10.868Z,101116.53
2022-08-08T22:23:50.345Z,101117.47
2022-08-08T22:26:29.445Z,101125.78
2022-08-08T22:29:13.452Z,101134.88
2022-08-08T22:31:58.111Z,101133.44
2022-08-08T22:34:31.127Z,101136.16
2022-08-08T22:36:59.687Z,101135.28
2022-08-08T22:39:39.362Z,101135.97
2022-08-08T22:42:14.257Z,101134.91
2022-08-08T22:44:53.778Z,101132.56
2022-08-08T22:47:21.997Z,101145.13
2022-08-08T22:49:54.102Z,101138.31
2022-08-08T22:52:33.639Z,101143.03
2022-08-08T22:55:05.744Z,101130.13
2022-08-08T22:57:43.620Z,101132.00
2022-08-08T23:00:14.809Z,101132.28
2022-08-08T23:02:50.201Z,101140.63
2022-08-08T23:05:21.265Z,101146.09
2022-08-08T23:07:57.116Z,101144.69
2022-08-08T23:10:27.635Z,101143.78
2022-08-08T23:12:56.386Z,101150.84
2022-08-08T23:16:39.416Z,101152.84
2022-08-08T23:18:14.623Z,101152.41
2022-08-08T23:20:44.757Z,101152.97
2022-08-08T23:23:23.029Z,101163.25
2022-08-08T23:25:51.222Z,101156.25
2022-08-08T23:28:19.508Z,101159.56
2022-08-08T23:30:49.137Z,101159.06
2022-08-08T23:33:21.039Z,101159.69
2022-08-08T23:36:08.969Z,101160.66
2022-08-08T23:38:44.160Z,101158.78
2022-08-08T23:41:22.920Z,101166.53
2022-08-08T23:43:54.311Z,101159.56
2022-08-08T23:49:01.450Z,101167.84
2022-08-08T23:49:18.895Z,101165.22
2022-08-08T23:52:04.592Z,101157.34
2022-08-08T23:54:42.753Z,101165.03
2022-08-08T23:57:26.430Z,101160.03
